PWSweather.com
Personal Weather Stations
Station Observations
JEDRZEJOW
Kielce, JedrzejowPL 28-300

KielceJedrzejowPL 28-300

Lat: 50.64416885, Lon: 20.30450058

Elevation: 790

Station Type: WH1080

Latest ConditionsUpdated 6:15:00 PM GMT+01:01 Tuesday, Mar 26, 2019
Currently Today's Max Today's Min Today's Average
Temperature 39.9°F4.4°C 47.5°F8.6°C 37.0°F2.8°C 41.3°F5.2°C
Dew Point 30.9°F-0.6°C 35.9°F2.2°C 27.0°F-2.8°C 32.5°F0.3°C
Winds 8.6 mph WSW13.8 kmh WSW 16.1 mph -25.9 kmh - - 7.4 mph 11.9 kmh
Wind Gusts 15.9 mph25.6 kmh 26.6 mph42.8 kmh - -
Humidity 70% 90% 46% 72%
Pressure 30.03 in1016.9 mb 30.11 in1019.6 mb 29.99 in1015.6 mb -
Precipitation - 0.02 in0.5 mm - -
Hour Temp Dew Point Humidity Winds Wind Gusts Pressure Precip Precip Rate Daily Precip Total
06:15 PM 39.9°F4.4°C 30.9°F-0.6°C 70% 8.6 mph WSW13.8 kmh WSW 15.9 mph25.6 kmh 30.03 in1016.9 mb 0.00 in0.0 mm 0.00 in0.0 mm 0.02 in0.5 mm
06:00 PM 40.8°F4.9°C 30.7°F-0.7°C 67% 9.6 mph W15.4 kmh W 17.4 mph28.0 kmh 30.03 in1016.9 mb 0.00 in0.0 mm 0.00 in0.0 mm 0.02 in0.5 mm
05:45 PM 41.2°F5.1°C 30.3°F-0.9°C 65% 11.9 mph W19.2 kmh W 25.1 mph40.4 kmh 30.02 in1016.6 mb 0.00 in0.0 mm 0.00 in0.0 mm 0.02 in0.5 mm
05:30 PM 41.7°F5.4°C 29.6°F-1.3°C 62% 9.4 mph WNW15.1 kmh WNW 18.3 mph29.5 kmh 30.03 in1016.9 mb 0.00 in0.0 mm 0.00 in0.0 mm 0.02 in0.5 mm
05:15 PM 42.1°F5.6°C 29.6°F-1.3°C 61% 12.8 mph W20.6 kmh W 20.6 mph33.2 kmh 30.03 in1016.9 mb 0.00 in0.0 mm 0.00 in0.0 mm 0.02 in0.5 mm
05:00 PM 42.3°F5.7°C 29.8°F-1.2°C 61% 13.1 mph W21.1 kmh W 25.9 mph41.7 kmh 30.04 in1017.3 mb 0.00 in0.0 mm 0.00 in0.0 mm 0.02 in0.5 mm
04:45 PM 42.6°F5.9°C 30.1°F-1.1°C 61% 11.6 mph W18.7 kmh W 22.1 mph35.6 kmh 30.04 in1017.3 mb 0.00 in0.0 mm 0.00 in0.0 mm 0.02 in0.5 mm
04:30 PM 43.3°F6.3°C 31.6°F-0.2°C 63% 8.9 mph WNW14.3 kmh WNW 25.9 mph41.7 kmh 30.04 in1017.3 mb 0.00 in0.0 mm 0.00 in0.0 mm 0.02 in0.5 mm
04:15 PM 43.3°F6.3°C 35.3°F1.8°C 73% 11.2 mph NW18.0 kmh NW 23.5 mph37.8 kmh 30.03 in1016.9 mb 0.00 in0.0 mm 0.00 in0.0 mm 0.02 in0.5 mm
04:00 PM 42.6°F5.9°C 34.9°F1.6°C 74% 15.7 mph WNW25.3 kmh WNW 25.9 mph41.7 kmh 30.03 in1016.9 mb 0.00 in0.0 mm 0.00 in0.0 mm 0.02 in0.5 mm
03:45 PM 43.5°F6.4°C 34.7°F1.5°C 71% 11.6 mph WSW18.7 kmh WSW 24.4 mph39.3 kmh 30.02 in1016.6 mb 0.00 in0.0 mm 0.00 in0.0 mm 0.02 in0.5 mm
03:30 PM 45.0°F7.2°C 34.3°F1.3°C 66% 16.1 mph WSW25.9 kmh WSW 24.4 mph39.3 kmh 30.02 in1016.6 mb 0.00 in0.0 mm 0.00 in0.0 mm 0.02 in0.5 mm
03:15 PM 44.8°F7.1°C 35.9°F2.2°C 71% 12.5 mph WSW20.1 kmh WSW 26.6 mph42.8 kmh 30.02 in1016.6 mb 0.00 in0.0 mm 0.00 in0.0 mm 0.02 in0.5 mm
03:00 PM 43.9°F6.6°C 35.1°F1.7°C 71% 13.7 mph WNW22.0 kmh WNW 25.9 mph41.7 kmh 30.02 in1016.6 mb 0.00 in0.0 mm 0.00 in0.0 mm 0.02 in0.5 mm
02:45 PM 44.8°F7.1°C 35.9°F2.2°C 71% 10.6 mph SW17.1 kmh SW 21.3 mph34.3 kmh 30.03 in1016.9 mb 0.01 in0.3 mm 0.00 in0.0 mm 0.02 in0.5 mm
02:30 PM 43.9°F6.6°C 35.1°F1.7°C 71% 12.7 mph W20.4 kmh W 22.1 mph35.6 kmh 30.03 in1016.9 mb 0.01 in0.3 mm 0.00 in0.0 mm 0.02 in0.5 mm
02:15 PM 43.0°F6.1°C 34.6°F1.4°C 72% 10.2 mph WNW16.4 kmh WNW 16.8 mph27.0 kmh 30.04 in1017.3 mb 0.01 in0.3 mm 0.00 in0.0 mm 0.02 in0.5 mm
02:00 PM 44.4°F6.9°C 32.6°F0.3°C 63% 8.8 mph WNW14.2 kmh WNW 18.3 mph29.5 kmh 30.05 in1017.6 mb 0.01 in0.3 mm 0.01 in0.3 mm 0.02 in0.5 mm
01:45 PM 46.4°F8.0°C 27.8°F-2.3°C 48% 9.1 mph WNW14.6 kmh WNW 17.4 mph28.0 kmh 30.05 in1017.6 mb 0.00 in0.0 mm 0.00 in0.0 mm 0.01 in0.3 mm
01:30 PM 46.8°F8.2°C 27.0°F-2.8°C 46% 11.2 mph WNW18.0 kmh WNW 22.8 mph36.7 kmh 30.06 in1017.9 mb 0.00 in0.0 mm 0.00 in0.0 mm 0.01 in0.3 mm
01:15 PM 46.8°F8.2°C 28.6°F-1.9°C 49% 9.9 mph NW15.9 kmh NW 19.0 mph30.6 kmh 30.07 in1018.3 mb 0.00 in0.0 mm 0.00 in0.0 mm 0.01 in0.3 mm
01:00 PM 46.8°F8.2°C 27.6°F-2.4°C 47% 8.4 mph WNW13.5 kmh WNW 15.9 mph25.6 kmh 30.07 in1018.3 mb 0.00 in0.0 mm 0.00 in0.0 mm 0.01 in0.3 mm
12:45 PM 46.8°F8.2°C 28.6°F-1.9°C 49% 9.6 mph W15.4 kmh W 20.6 mph33.2 kmh 30.07 in1018.3 mb 0.00 in0.0 mm 0.00 in0.0 mm 0.01 in0.3 mm
12:30 PM 46.6°F8.1°C 28.9°F-1.7°C 50% 10.1 mph W16.3 kmh W 18.3 mph29.5 kmh 30.07 in1018.3 mb 0.00 in0.0 mm 0.00 in0.0 mm 0.01 in0.3 mm
12:15 PM 46.2°F7.9°C 27.6°F-2.4°C 48% 8.3 mph WNW13.4 kmh WNW 17.4 mph28.0 kmh 30.08 in1018.6 mb 0.00 in0.0 mm 0.00 in0.0 mm 0.01 in0.3 mm
12:00 PM 46.4°F8.0°C 28.8°F-1.8°C 50% 9.3 mph WSW15.0 kmh WSW 16.8 mph27.0 kmh 30.08 in1018.6 mb 0.00 in0.0 mm 0.00 in0.0 mm 0.01 in0.3 mm
11:45 AM 46.2°F7.9°C 28.6°F-1.9°C 50% 8.3 mph W13.4 kmh W 15.9 mph25.6 kmh 30.08 in1018.6 mb 0.00 in0.0 mm 0.00 in0.0 mm 0.01 in0.3 mm
11:30 AM 46.8°F8.2°C 29.1°F-1.6°C 50% 8.0 mph WSW12.9 kmh WSW 14.5 mph23.3 kmh 30.08 in1018.6 mb 0.00 in0.0 mm 0.00 in0.0 mm 0.01 in0.3 mm
11:15 AM 47.3°F8.5°C 30.1°F-1.1°C 51% 11.9 mph W19.2 kmh W 19.0 mph30.6 kmh 30.08 in1018.6 mb 0.00 in0.0 mm 0.00 in0.0 mm 0.01 in0.3 mm
11:00 AM 47.5°F8.6°C 31.2°F-0.4°C 53% 10.4 mph W16.7 kmh W 19.7 mph31.7 kmh 30.09 in1019.0 mb 0.00 in0.0 mm 0.00 in0.0 mm 0.01 in0.3 mm
10:45 AM 45.1°F7.3°C 32.1°F0.1°C 60% 7.8 mph WNW12.6 kmh WNW 14.5 mph23.3 kmh 30.09 in1019.0 mb 0.01 in0.3 mm 0.00 in0.0 mm 0.01 in0.3 mm
10:30 AM 44.6°F7.0°C 31.6°F-0.2°C 60% 7.7 mph W12.4 kmh W 13.6 mph21.9 kmh 30.10 in1019.3 mb 0.01 in0.3 mm 0.00 in0.0 mm 0.01 in0.3 mm
10:15 AM 45.0°F7.2°C 31.9°F-0.1°C 60% 6.9 mph W11.1 kmh W 12.1 mph19.5 kmh 30.10 in1019.3 mb 0.01 in0.3 mm 0.00 in0.0 mm 0.01 in0.3 mm
10:00 AM 45.0°F7.2°C 32.3°F0.2°C 61% 9.9 mph W15.9 kmh W 15.9 mph25.6 kmh 30.10 in1019.3 mb 0.01 in0.3 mm 0.01 in0.3 mm 0.01 in0.3 mm
09:45 AM 43.9°F6.6°C 32.5°F0.3°C 64% 9.4 mph WNW15.1 kmh WNW 18.3 mph29.5 kmh 30.10 in1019.3 mb 0.00 in0.0 mm 0.00 in0.0 mm 0.00 in0.0 mm
09:30 AM 43.3°F6.3°C 33.1°F0.6°C 67% 9.3 mph W15.0 kmh W 21.3 mph34.3 kmh 30.11 in1019.6 mb 0.00 in0.0 mm 0.00 in0.0 mm 0.00 in0.0 mm
09:15 AM 42.3°F5.7°C 30.9°F-0.6°C 64% 7.6 mph NW12.2 kmh NW 13.0 mph20.9 kmh 30.10 in1019.3 mb 0.00 in0.0 mm 0.00 in0.0 mm 0.00 in0.0 mm
09:00 AM 41.7°F5.4°C 31.6°F-0.2°C 67% 7.6 mph NW12.2 kmh NW 13.6 mph21.9 kmh 30.11 in1019.6 mb 0.00 in0.0 mm 0.00 in0.0 mm 0.00 in0.0 mm
08:45 AM 41.2°F5.1°C 32.5°F0.3°C 71% 5.9 mph WNW9.5 kmh WNW 13.0 mph20.9 kmh 30.10 in1019.3 mb 0.00 in0.0 mm 0.00 in0.0 mm 0.00 in0.0 mm
08:30 AM 40.6°F4.8°C 32.0°F0.0°C 71% 6.5 mph WNW10.5 kmh WNW 19.0 mph30.6 kmh 30.10 in1019.3 mb 0.00 in0.0 mm 0.00 in0.0 mm 0.00 in0.0 mm
08:15 AM 40.3°F4.6°C 31.6°F-0.2°C 71% 6.0 mph NW9.7 kmh NW 15.9 mph25.6 kmh 30.10 in1019.3 mb 0.00 in0.0 mm 0.00 in0.0 mm 0.00 in0.0 mm
08:00 AM 39.7°F4.3°C 31.8°F-0.1°C 73% 5.1 mph NW8.2 kmh NW 10.7 mph17.2 kmh 30.10 in1019.3 mb 0.00 in0.0 mm 0.00 in0.0 mm 0.00 in0.0 mm
07:45 AM 39.0°F3.9°C 31.4°F-0.3°C 74% 5.3 mph NW8.5 kmh NW 10.7 mph17.2 kmh 30.10 in1019.3 mb 0.00 in0.0 mm 0.00 in0.0 mm 0.00 in0.0 mm
07:30 AM 38.5°F3.6°C 32.2°F0.1°C 78% 5.5 mph WNW8.9 kmh WNW 9.2 mph14.8 kmh 30.09 in1019.0 mb 0.00 in0.0 mm 0.00 in0.0 mm 0.00 in0.0 mm
07:15 AM 38.1°F3.4°C 32.5°F0.3°C 80% 4.7 mph NW7.6 kmh NW 9.8 mph15.8 kmh 30.09 in1019.0 mb 0.00 in0.0 mm 0.00 in0.0 mm 0.00 in0.0 mm
07:00 AM 37.8°F3.2°C 32.8°F0.4°C 82% 3.5 mph NW5.6 kmh NW 6.9 mph11.1 kmh 30.08 in1018.6 mb 0.00 in0.0 mm 0.00 in0.0 mm 0.00 in0.0 mm
06:45 AM 37.2°F2.9°C 32.5°F0.3°C 83% 2.8 mph NW4.5 kmh NW 5.4 mph8.7 kmh 30.08 in1018.6 mb 0.00 in0.0 mm 0.00 in0.0 mm 0.00 in0.0 mm
06:30 AM 37.0°F2.8°C 32.4°F0.2°C 83% 4.2 mph NW6.8 kmh NW 9.2 mph14.8 kmh 30.08 in1018.6 mb 0.00 in0.0 mm 0.00 in0.0 mm 0.00 in0.0 mm
06:15 AM 37.0°F2.8°C 32.7°F0.4°C 84% 1.7 mph NW2.7 kmh NW 3.8 mph6.1 kmh 30.09 in1019.0 mb 0.00 in0.0 mm 0.00 in0.0 mm 0.00 in0.0 mm
06:00 AM 37.0°F2.8°C 32.4°F0.2°C 83% 2.8 mph NW4.5 kmh NW 6.9 mph11.1 kmh 30.08 in1018.6 mb 0.00 in0.0 mm 0.00 in0.0 mm 0.00 in0.0 mm
05:45 AM 37.4°F3.0°C 32.7°F0.4°C 83% 4.1 mph NW6.6 kmh NW 8.3 mph13.4 kmh 30.07 in1018.3 mb 0.00 in0.0 mm 0.00 in0.0 mm 0.00 in0.0 mm
05:30 AM 37.4°F3.0°C 32.7°F0.4°C 83% 5.1 mph NNW8.2 kmh NNW 12.1 mph19.5 kmh 30.07 in1018.3 mb 0.00 in0.0 mm 0.00 in0.0 mm 0.00 in0.0 mm
05:15 AM 37.4°F3.0°C 32.4°F0.2°C 82% 4.2 mph WNW6.8 kmh WNW 8.3 mph13.4 kmh 30.07 in1018.3 mb 0.00 in0.0 mm 0.00 in0.0 mm 0.00 in0.0 mm
05:00 AM 37.2°F2.9°C 32.5°F0.3°C 83% 3.5 mph NW5.6 kmh NW 6.9 mph11.1 kmh 30.07 in1018.3 mb 0.00 in0.0 mm 0.00 in0.0 mm 0.00 in0.0 mm
04:45 AM 37.4°F3.0°C 32.7°F0.4°C 83% 3.1 mph NW5.0 kmh NW 6.9 mph11.1 kmh 30.06 in1017.9 mb 0.00 in0.0 mm 0.00 in0.0 mm 0.00 in0.0 mm
04:30 AM 37.8°F3.2°C 33.4°F0.8°C 84% 4.5 mph NW7.2 kmh NW 7.6 mph12.2 kmh 30.06 in1017.9 mb 0.00 in0.0 mm 0.00 in0.0 mm 0.00 in0.0 mm
04:15 AM 37.9°F3.3°C 34.1°F1.2°C 86% 3.9 mph NW6.3 kmh NW 7.6 mph12.2 kmh 30.06 in1017.9 mb 0.00 in0.0 mm 0.00 in0.0 mm 0.00 in0.0 mm
04:00 AM 37.9°F3.3°C 34.7°F1.5°C 88% 4.2 mph NW6.8 kmh NW 7.6 mph12.2 kmh 30.06 in1017.9 mb 0.00 in0.0 mm 0.00 in0.0 mm 0.00 in0.0 mm
03:45 AM 37.9°F3.3°C 35.0°F1.7°C 89% 4.5 mph NW7.2 kmh NW 7.6 mph12.2 kmh 30.05 in1017.6 mb 0.00 in0.0 mm 0.00 in0.0 mm 0.00 in0.0 mm
03:30 AM 38.1°F3.4°C 35.4°F1.9°C 90% 3.7 mph NNW6.0 kmh NNW 9.8 mph15.8 kmh 30.04 in1017.3 mb 0.00 in0.0 mm 0.00 in0.0 mm 0.00 in0.0 mm
03:15 AM 38.1°F3.4°C 35.4°F1.9°C 90% 4.3 mph NNW6.9 kmh NNW 7.6 mph12.2 kmh 30.04 in1017.3 mb 0.00 in0.0 mm 0.00 in0.0 mm 0.00 in0.0 mm
03:00 AM 37.9°F3.3°C 35.3°F1.8°C 90% 4.3 mph NNW6.9 kmh NNW 7.6 mph12.2 kmh 30.03 in1016.9 mb 0.00 in0.0 mm 0.00 in0.0 mm 0.00 in0.0 mm
02:45 AM 37.8°F3.2°C 35.1°F1.7°C 90% 4.8 mph NNW7.7 kmh NNW 9.2 mph14.8 kmh 30.03 in1016.9 mb 0.00 in0.0 mm 0.00 in0.0 mm 0.00 in0.0 mm
02:30 AM 37.6°F3.1°C 34.9°F1.6°C 90% 5.0 mph NNW8.0 kmh NNW 8.3 mph13.4 kmh 30.03 in1016.9 mb 0.00 in0.0 mm 0.00 in0.0 mm 0.00 in0.0 mm
02:15 AM 37.8°F3.2°C 35.1°F1.7°C 90% 5.5 mph NW8.9 kmh NW 10.7 mph17.2 kmh 30.02 in1016.6 mb 0.00 in0.0 mm 0.00 in0.0 mm 0.00 in0.0 mm
02:00 AM 37.8°F3.2°C 34.8°F1.6°C 89% 4.2 mph NNW6.8 kmh NNW 8.3 mph13.4 kmh 30.02 in1016.6 mb 0.00 in0.0 mm 0.00 in0.0 mm 0.00 in0.0 mm
01:45 AM 37.9°F3.3°C 35.3°F1.8°C 90% 4.5 mph NNW7.2 kmh NNW 8.3 mph13.4 kmh 30.02 in1016.6 mb 0.00 in0.0 mm 0.00 in0.0 mm 0.00 in0.0 mm
01:30 AM 38.3°F3.5°C 35.6°F2.0°C 90% 4.8 mph NW7.7 kmh NW 7.6 mph12.2 kmh 30.01 in1016.3 mb 0.00 in0.0 mm 0.00 in0.0 mm 0.00 in0.0 mm
01:15 AM 38.3°F3.5°C 35.6°F2.0°C 90% 5.0 mph NW8.0 kmh NW 9.2 mph14.8 kmh 30.02 in1016.6 mb 0.00 in0.0 mm 0.00 in0.0 mm 0.00 in0.0 mm
01:00 AM 38.5°F3.6°C 35.8°F2.1°C 90% 5.1 mph NW8.2 kmh NW 8.3 mph13.4 kmh 30.02 in1016.6 mb 0.00 in0.0 mm 0.00 in0.0 mm 0.00 in0.0 mm
12:45 AM 38.3°F3.5°C 35.1°F1.7°C 88% 4.5 mph NNW7.2 kmh NNW 8.3 mph13.4 kmh 30.01 in1016.3 mb 0.00 in0.0 mm 0.00 in0.0 mm 0.00 in0.0 mm
12:30 AM 38.8°F3.8°C 35.6°F2.0°C 88% 5.4 mph N8.7 kmh N 9.2 mph14.8 kmh 30.00 in1015.9 mb 0.00 in0.0 mm 0.00 in0.0 mm 0.00 in0.0 mm
12:15 AM 38.8°F3.8°C 35.6°F2.0°C 88% 3.6 mph N5.8 kmh N 6.0 mph9.7 kmh 30.00 in1015.9 mb 0.00 in0.0 mm 0.00 in0.0 mm 0.00 in0.0 mm
12:00 AM 38.8°F3.8°C 35.3°F1.8°C 87% 4.0 mph NW6.4 kmh NW 7.6 mph12.2 kmh 29.99 in1015.6 mb 0.00 in0.0 mm 0.00 in0.0 mm 0.00 in0.0 mm